Flight Track Log - Related Links

Times and Time Zones

All times are in EDT time to prevent confusion due to time zone crossing. See the SWA131 flight status page for this flight to view local times or setup timezone preferences in your user account.

Time Position Orientation Groundspeed Altitude Reporting Facility
EDT Latitude Longitude Course Direction KTS MPH feet Rate Location/Type
Sat 02:24:38 AM 32.7417 -117.2139 298° West 167 192 1,200  Level Los Angeles Center
Sat 02:25:39 AM 32.7808 -117.3025 298° West 234 269 4,100 3,148 Climbing Los Angeles Center
Sat 02:26:40 AM 32.7175 -117.3322 202° Southwest 250 288 7,600 2,951 Climbing Los Angeles Center
Sat 02:27:41 AM 32.6558 -117.2908 151° Southeast 291 335 10,100 2,410 Climbing Los Angeles Center
Sat 02:28:42 AM 32.6453 -117.1800 96° East 331 381 12,500 2,607 Climbing Los Angeles Center
Sat 02:29:43 AM 32.6231 -117.0603 102° East 365 420 15,400 2,705 Climbing Los Angeles Center
Sat 02:30:44 AM 32.6278 -116.9394 87° East 384 442 18,000 2,508 Climbing Los Angeles Center
Sat 02:31:45 AM 32.7175 -116.8614 36° Northeast 403 464 20,500 2,361 Climbing Los Angeles Center
Sat 02:32:46 AM 32.8136 -116.7878 33° Northeast 406 467 22,800 2,164 Climbing Los Angeles Center
Sat 02:33:47 AM 32.9156 -116.7094 33° Northeast 423 487 24,900 2,016 Climbing Los Angeles Center
Sat 02:34:48 AM 33.0242 -116.6269 32° Northeast 446 513 26,900 1,033 Climbing Los Angeles Center
Sat 02:35:49 AM 33.1333 -116.5431 33° Northeast 458 527 27,000 49 Climbing Los Angeles Center
Sat 02:36:50 AM 33.2408 -116.4606 33° Northeast 458 527 27,000 836 Level Los Angeles Center
Sat 02:37:51 AM 33.3478 -116.3781 33° Northeast 455 524 28,700 1,475 Climbing Los Angeles Center
Sat 02:38:52 AM 33.4361 -116.3089 33° Northeast 464 534 30,000 1,623 Climbing Los Angeles Center
Sat 02:39:53 AM 33.5731 -116.2025 33° Northeast 483 556 32,000 2,016 Climbing Los Angeles Center
Sat 02:40:54 AM 33.6744 -116.0914 42° Northeast 497 572 34,100 2,016 Climbing Los Angeles Center
Sat 02:41:55 AM 33.7792 -115.9386 50° Northeast 494 568 36,100 1,488 Climbing Los Angeles Center
Sat 02:42:55 AM 33.8667 -115.8119 50° Northeast 493 567 37,100 1,140 Climbing Los Angeles Center
Sat 02:43:56 AM 33.9542 -115.6819 51° Northeast 497 572 38,400 934 Climbing Los Angeles Center
Sat 02:44:57 AM 34.0408 -115.5556 50° Northeast 493 567 39,000 295 Climbing Los Angeles Center
Sat 02:45:58 AM 34.1269 -115.4286 51° Northeast 490 564 39,000  Level Los Angeles Center
Sat 02:46:59 AM 34.2131 -115.3019 51° Northeast 487 560 39,000  Level Los Angeles Center
Sat 02:48:00 AM 34.2989 -115.1753 51° Northeast 487 560 39,000  Level Los Angeles Center
Sat 02:49:01 AM 34.3842 -115.0478 51° Northeast 487 560 39,000  Level Los Angeles Center
Sat 02:50:01 AM 34.4686 -114.9175 52° Northeast 492 566 39,000  Level Los Angeles Center
Sat 02:51:03 AM 34.5553 -114.7928 50° Northeast 486 559 39,000  Level Los Angeles Center
Sat 02:52:03 AM 34.6400 -114.6639 51° Northeast 487 560 39,000  Level Los Angeles Center
Sat 02:53:04 AM 34.7272 -114.5306 51° Northeast 491 565 39,000  Level Los Angeles Center
Sat 02:54:05 AM 34.8022 -114.3919 57° Northeast 490 564 39,000  Level Los Angeles Center
Sat 02:55:05 AM 34.8669 -114.2433 62° Northeast 493 567 39,000  Level Los Angeles Center
Sat 02:56:06 AM 34.9322 -114.0953 62° Northeast 495 570 39,000  Level Los Angeles Center
Sat 02:57:07 AM 35.0092 -113.9175 62° Northeast 494 568 39,000  Level Los Angeles Center
Sat 02:58:08 AM 35.0642 -113.7933 62° Northeast 496 571 39,000  Level Los Angeles Center
Sat 02:59:08 AM 35.1283 -113.6453 62° Northeast 495 570 39,000  Level Los Angeles Center
Sat 03:00:09 AM 35.1950 -113.4972 61° Northeast 499 574 39,000  Level Los Angeles Center
Sat 03:01:11 AM 35.2664 -113.3544 58° Northeast 496 571 39,000  Level Los Angeles Center
Sat 03:02:11 AM 35.3483 -113.1850 59° Northeast 493 567 39,000  Level Los Angeles Center
Sat 03:03:11 AM 35.4197 -113.0397 59° Northeast 498 573 39,000  Level Los Angeles Center
Sat 03:04:12 AM 35.4869 -112.8978 60° Northeast 500 575 39,000  Level Los Angeles Center
Sat 03:05:13 AM 35.5561 -112.7517 60° Northeast 497 572 39,000  Level Los Angeles Center
Sat 03:06:25 AM 35.6250 -112.6064 60° Northeast 494 568 39,000  Level Los Angeles Center
Sat 03:07:26 AM 35.7178 -112.4111 60° Northeast 498 573 39,000  Level Los Angeles Center
Sat 03:08:27 AM 35.7869 -112.2639 60° Northeast 500 575 39,000  Level Los Angeles Center
Sat 03:09:27 AM 35.8561 -112.1167 60° Northeast 498 573 39,000  Level Los Angeles Center
Sat 03:10:28 AM 35.9253 -111.9694 60° Northeast 499 574 39,000  Level Los Angeles Center
Sat 03:11:29 AM 35.9989 -111.8089 60° Northeast 500 575 39,000  Level Los Angeles Center
Sat 03:12:29 AM 36.0681 -111.6586 60° Northeast 503 579 39,000  Level Los Angeles Center
Sat 03:13:19 AM 36.1244 -111.5425 59° Northeast 502 578 39,000  Level Denver Center
Sat 03:14:20 AM 36.2022 -111.4025 55° Northeast 497 572 39,000  Level Denver Center
Sat 03:15:20 AM 36.2792 -111.2617 56° Northeast 496 571 39,000  Level Denver Center
Sat 03:16:21 AM 36.3561 -111.1194 56° Northeast 498 573 39,000  Level Denver Center
Sat 03:17:21 AM 36.4353 -110.9761 56° Northeast 501 577 39,000  Level Denver Center
Sat 03:18:22 AM 36.5128 -110.8333 56° Northeast 501 577 39,000  Level Denver Center
Sat 03:19:22 AM 36.5886 -110.6906 56° Northeast 500 575 39,000  Level Denver Center
Sat 03:20:23 AM 36.6653 -110.5472 56° Northeast 499 574 39,000  Level Denver Center
Sat 03:21:24 AM 36.7417 -110.4031 56° Northeast 500 575 39,000  Level Denver Center
Sat 03:22:24 AM 36.8183 -110.2589 56° Northeast 501 577 39,000  Level Denver Center
Sat 03:23:37 AM 36.9194 -110.0667 57° Northeast 496 571 39,000  Level Denver Center
Sat 03:24:38 AM 36.9933 -109.9281 56° Northeast 499 574 39,000  Level Denver Center
Sat 03:25:38 AM 37.0658 -109.7894 57° Northeast 497 572 39,000  Level Denver Center
Sat 03:26:39 AM 37.1511 -109.6247 57° Northeast 501 577 39,000  Level Denver Center
Sat 03:27:39 AM 37.2244 -109.4850 57° Northeast 501 577 39,000  Level Denver Center
Sat 03:28:40 AM 37.2975 -109.3436 57° Northeast 502 578 39,000  Level Denver Center
Sat 03:29:41 AM 37.3825 -109.1792 57° Northeast 503 579 39,000 -496 Level Denver Center
Sat 03:30:41 AM 37.4544 -109.0372 57° Northeast 502 578 38,000 -942 Descending Denver Center
Sat 03:31:42 AM 37.5264 -108.8953 57° Northeast 502 578 37,100 -893 Descending Denver Center
Sat 03:32:42 AM 37.5997 -108.7508 57° Northeast 507 583 36,200 -942 Descending Denver Center
Sat 03:33:43 AM 37.6831 -108.5853 58° Northeast 503 579 35,200 -934 Descending Denver Center
Sat 03:34:44 AM 37.7567 -108.4408 57° Northeast 507 583 34,300 -595 Descending Denver Center
Sat 03:35:44 AM 37.8286 -108.2972 58° Northeast 504 580 34,000 -149 Descending Denver Center
Sat 03:36:45 AM 37.9122 -108.1308 57° Northeast 503 579 34,000  Level Denver Center
Sat 03:37:45 AM 37.9839 -107.9856 58° Northeast 504 580 34,000  Level Denver Center
Sat 03:38:46 AM 38.0550 -107.8406 58° Northeast 506 582 34,000  Level Denver Center
Sat 03:39:47 AM 38.1311 -107.6867 58° Northeast 505 581 34,000 -496 Level Denver Center
Sat 03:40:47 AM 38.2125 -107.5194 58° Northeast 500 575 33,000 -496 Descending Denver Center
Sat 03:41:48 AM 38.2822 -107.3778 58° Northeast 496 571 33,000  Level Denver Center
Sat 03:42:48 AM 38.3514 -107.2333 59° Northeast 499 574 33,000  Level Denver Center
Sat 03:43:49 AM 38.4272 -107.0786 58° Northeast 500 575 33,000  Level Denver Center
Sat 03:44:49 AM 38.5003 -106.9258 59° Northeast 505 581 33,000  Level Denver Center
Sat 03:45:50 AM 38.5725 -106.7742 59° Northeast 502 578 33,000  Level Denver Center
Sat 03:46:50 AM 38.6450 -106.6214 59° Northeast 505 581 33,000  Level Denver Center
Sat 03:47:51 AM 38.7172 -106.4694 59° Northeast 502 578 33,000  Level Denver Center
Sat 03:48:52 AM 38.7881 -106.3175 59° Northeast 500 575 33,000  Level Denver Center
Sat 03:49:52 AM 38.8642 -106.1572 59° Northeast 493 567 33,000 -694 Level Denver Center
Sat 03:50:53 AM 38.9289 -106.0164 59° Northeast 490 564 31,600 -1,934 Descending Denver Center
Sat 03:51:53 AM 38.9972 -105.8700 59° Northeast 481 554 29,100 -2,331 Descending Denver Center
Sat 03:52:54 AM 39.0631 -105.7278 59° Northeast 469 540 26,900 -2,231 Descending Denver Center
Sat 03:53:54 AM 39.1303 -105.5797 60° Northeast 455 524 24,600 -2,231 Descending Denver Center
Sat 03:54:55 AM 39.1958 -105.4433 58° Northeast 439 505 22,400 -1,579 Descending Denver Center
Sat 03:56:07 AM 39.2675 -105.2939 58° Northeast 386 444 21,100 -1,353 Descending Denver Center
Sat 03:57:08 AM 39.3469 -105.2133 38° Northeast 362 417 19,400 -1,636 Descending Denver Center
Sat 03:58:08 AM 39.4108 -105.1175 49° Northeast 350 403 17,800 -2,281 Descending Denver Center
Sat 03:59:09 AM 39.4786 -105.0256 46° Northeast 355 409 14,800 -2,479 Descending Denver Center
Sat 04:00:09 AM 39.5503 -104.9228 48° Northeast 357 411 12,800 -2,182 Descending Denver Center
Sat 04:01:10 AM 39.6161 -104.8319 47° Northeast 350 403 10,400 -1,537 Descending Denver Center
Sat 04:02:10 AM 39.6725 -104.7511 48° Northeast 296 341 9,700 -1,091 Descending Denver Center
Sat 04:03:11 AM 39.7167 -104.6889 47° Northeast 243 280 8,200 -1,328 Descending Denver Center
Sat 04:04:12 AM 39.7544 -104.6428 43° Northeast 191 220 7,000 -1,041 Descending Denver Center
Sat 04:05:12 AM 39.7989 -104.6425 360° North 158 182 6,100 -793 Descending Denver Center
Sat 04:06:13 AM 39.8386 -104.6417 North 144 166 5,400 -689 Descending Denver Center
Sat 04:08:00 AM 39.8617 -104.6732 340° North  Level Estimated
Sat 04:15:00 AM 39.8617 -104.6732 North  Level Estimated
Sat 04:16:00 AM 39.8617 -104.6732 North  Level Estimated

Login

Don't have an account? Register now (free) for customized features, flight alerts, and more!